Home   Weather   Spain   Valladolid   Past weeks
Flag for Spain

Past Weather in Valladolid, Spain — Yesterday and Last 2 Weeks

Currently: 68 °F. Sunny. (Weather station: Valladolid / Villanubla, Spain). See more current weather

Past Weather in Valladolid — Graph

°F

Valladolid Temperature Yesterday

Maximum temperature yesterday: 68 °F (at 4:00 pm)
Minimum temperature yesterday: 50 °F (at 11:30 pm)
Average temperature yesterday: 60 °F

High & Low Weather Summary for the Past Weeks

 TemperatureHumidityPressure
High93 °F (Sep 6, 4:30 pm)100% (Sep 14, 4:30 am)30.24 "Hg (Sep 14, 4:30 am)
Low45 °F (Sep 19, 5:00 am)20% (Sep 6, 4:30 pm)29.89 "Hg (Sep 14, 3:30 am)
Average65 °F64%30.06 "Hg
* Reported Sep 4 2:00 pm — Sep 19 2:00 pm, Valladolid. Weather by CustomWeather, © 2021

Note: Actual official high and low records may vary slightly from our data, if they occured in-between our weather recording intervals... More about our weather records

Valladolid Weather History for the Previous 24 Hours

Scroll right to see more
 ConditionsComfort  
Time TempWeatherWind HumidityBarometerVisibility
2:00 pm
Sun, Sep 19
64 °FSunny.5 mph46%30.21 "Hg10 mi
1:30 pm63 °FPassing clouds.6 mph45%30.21 "HgN/A
1:00 pm63 °FSunny.3 mph52%30.24 "Hg10 mi
12:30 pm61 °FSunny.3 mph55%30.24 "Hg10 mi
12:00 pm59 °FPassing clouds.3 mph55%30.24 "HgN/A
11:30 am57 °FSunny.2 mph63%30.24 "Hg10 mi
11:00 am57 °FPassing clouds.3 mph67%30.24 "HgN/A
10:30 am55 °FPassing clouds.6 mph67%30.24 "HgN/A
10:00 am54 °FPassing clouds.5 mph72%30.21 "HgN/A
9:30 am54 °FSunny.2 mph77%30.21 "Hg10 mi
9:00 am50 °FSunny.5 mph82%30.18 "Hg10 mi
8:30 am45 °FSunny.3 mph93%30.18 "Hg10 mi
8:00 am45 °FClear.1 mph93%30.18 "Hg10 mi
7:30 am45 °FClear.2 mph93%30.18 "Hg10 mi
6:30 am45 °FClear.5 mph87%30.18 "Hg10 mi
6:00 am45 °FClear.2 mph93%30.18 "Hg10 mi
5:30 am45 °FClear.2 mph93%30.18 "Hg10 mi
5:00 am45 °FLight fog.3 mph87%30.18 "HgN/A
4:30 am46 °FPassing clouds.3 mph87%30.18 "HgN/A
4:00 am46 °FClear.5 mph93%30.18 "Hg10 mi
3:30 am46 °FClear.5 mph93%30.18 "Hg10 mi
3:00 am46 °FClear.6 mph87%30.18 "Hg10 mi
1:30 am48 °FClear.6 mph82%30.18 "Hg10 mi
1:00 am48 °FClear.6 mph87%30.18 "Hg10 mi
12:30 am50 °FClear.7 mph76%30.15 "Hg10 mi
12:00 am52 °FPassing clouds.3 mph72%30.15 "HgN/A
11:30 pm
Sat, Sep 18
50 °FClear.5 mph76%30.15 "Hg10 mi
11:00 pm52 °FClear.8 mph72%30.15 "Hg10 mi
10:30 pm54 °FClear.8 mph67%30.15 "Hg10 mi
10:00 pm54 °FClear.5 mph67%30.12 "Hg10 mi
9:30 pm55 °FClear.8 mph67%30.12 "Hg10 mi
9:00 pm57 °FClear.8 mph59%30.09 "Hg10 mi
8:30 pm61 °FClear.9 mph52%30.09 "Hg10 mi
8:00 pm64 °FSunny.10 mph46%30.09 "Hg10 mi
7:30 pm66 °FSunny.12 mph37%30.07 "Hg10 mi
7:00 pm66 °FPassing clouds.12 mph32%30.07 "HgN/A
6:30 pm68 °FPassing clouds.12 mph33%30.07 "HgN/A
6:00 pm66 °FPassing clouds.15 mph37%30.07 "HgN/A
5:30 pm68 °FPassing clouds.15 mph35%30.07 "HgN/A
5:00 pm68 °FPassing clouds.15 mph33%30.07 "HgN/A
4:30 pm68 °FPassing clouds.14 mph33%30.07 "HgN/A
4:00 pm68 °FPassing clouds.10 mph33%30.07 "HgN/A
Weather by CustomWeather, © 2021

See weather overview